createdAt,value
2023-03-08T00:02:46.167Z,65.86
2023-03-08T00:07:38.138Z,66.11
2023-03-08T00:12:29.887Z,66.44
2023-03-08T00:17:21.571Z,66.42
2023-03-08T00:22:13.258Z,67.10
2023-03-08T00:27:05.066Z,67.54
2023-03-08T00:31:56.828Z,67.83
2023-03-08T00:36:48.649Z,67.77
2023-03-08T00:41:40.348Z,67.87
2023-03-08T00:46:32.208Z,67.47
2023-03-08T00:51:24.004Z,67.42
2023-03-08T00:56:16.122Z,68.23
2023-03-08T01:01:14.284Z,68.22
2023-03-08T01:06:10.299Z,68.08
2023-03-08T01:11:02.605Z,67.99
2023-03-08T01:15:54.465Z,67.83
2023-03-08T01:21:03.004Z,68.31
2023-03-08T01:26:04.282Z,68.39
2023-03-08T01:31:03.271Z,68.59
2023-03-08T01:35:55.033Z,69.00
2023-03-08T01:40:46.753Z,68.97
2023-03-08T01:46:17.938Z,69.55
2023-03-08T01:51:15.128Z,70.04
2023-03-08T01:56:13.346Z,69.96
2023-03-08T02:01:05.514Z,70.28
2023-03-08T02:05:58.080Z,69.23
2023-03-08T02:10:50.638Z,69.16
2023-03-08T02:15:42.361Z,69.03
2023-03-08T02:20:38.671Z,68.92
2023-03-08T02:25:30.417Z,69.25
2023-03-08T02:30:32.084Z,69.31
2023-03-08T02:35:23.832Z,69.50
2023-03-08T02:40:15.592Z,69.16
2023-03-08T02:45:08.152Z,69.09
2023-03-08T02:49:59.921Z,68.92
2023-03-08T02:54:51.652Z,68.10
2023-03-08T02:59:43.316Z,68.45
2023-03-08T03:04:35.040Z,68.50
2023-03-08T03:09:27.833Z,68.94
2023-03-08T03:14:19.932Z,69.32
2023-03-08T03:19:12.147Z,69.13
2023-03-08T03:24:04.061Z,69.08
2023-03-08T03:28:59.899Z,69.73
2023-03-08T03:33:52.290Z,70.01
2023-03-08T03:38:44.473Z,70.34
2023-03-08T03:43:37.378Z,70.68
2023-03-08T03:48:29.888Z,72.99
2023-03-08T03:53:21.564Z,73.28
2023-03-08T03:58:13.289Z,73.46
2023-03-08T04:03:05.072Z,74.27
2023-03-08T04:07:56.785Z,73.59
2023-03-08T04:12:49.759Z,73.67
2023-03-08T04:17:41.434Z,73.69
2023-03-08T04:22:33.227Z,73.47
2023-03-08T04:27:25.037Z,74.20
2023-03-08T04:32:16.901Z,74.49
2023-03-08T04:37:11.792Z,75.17
2023-03-08T04:42:03.739Z,75.84
2023-03-08T04:46:55.643Z,76.12
2023-03-08T04:51:47.391Z,76.54
2023-03-08T05:27:22.332Z,74.02
2023-03-08T05:32:17.925Z,73.47
2023-03-08T05:47:29.567Z,73.15
2023-03-08T05:57:32.047Z,73.24
2023-03-08T06:02:25.047Z,73.95
2023-03-08T06:12:27.856Z,74.10
2023-03-08T06:27:43.267Z,72.71
2023-03-08T08:35:34.018Z,67.34
2023-03-08T09:17:08.737Z,67.31
2023-03-08T10:10:49.462Z,64.35
2023-03-08T12:42:51.267Z,69.52
2023-03-08T15:05:32.692Z,72.28
2023-03-08T18:12:05.168Z,100.00
2023-03-08T18:27:43.939Z,100.00
2023-03-08T20:38:09.432Z,100.00
2023-03-08T21:43:26.556Z,100.00
2023-03-08T22:00:32.344Z,98.44
2023-03-08T22:05:37.759Z,97.86
